Time;durP1;ratioP1;P1;durP2;ratioP2;P2;SDS_P1;SDS_P2;PMS_P1;PMS_P2;Temp;Humidity;BMP_temperature;BMP_pressure;BME280_temperature;BME280_humidity;BME280_pressure;Samples;Min_cycle;Max_cycle;Signal;HPM_P1;HPM_P2
2022/09/26 00:01:13;;;;;;;7.93;2.05;;;;;;;;;;4391934;32;20128;-72
2022/09/26 00:03:41;;;;;;;4.80;2.45;;;;;;;;;;4391627;32;20558;-72
2022/09/26 00:06:07;;;;;;;6.87;2.65;;;;;;;;;;4391440;32;20043;-72
2022/09/26 00:08:33;;;;;;;10.88;2.03;;;;;;;;;;4392988;32;20408;-71
2022/09/26 00:10:59;;;;;;;7.68;1.85;;;;;;;;;;4392875;32;20098;-71
2022/09/26 00:13:25;;;;;;;12.85;2.03;;;;;;;;;;4405289;32;20050;-71
2022/09/26 00:15:51;;;;;;;7.00;2.53;;;;;;;;;;4408021;32;20030;-71
2022/09/26 00:18:16;;;;;;;7.75;1.95;;;;;;;;;;4406495;32;20073;-72
2022/09/26 00:20:42;;;;;;;11.05;2.10;;;;;;;;;;4392213;32;20100;-71
2022/09/26 00:23:07;;;;;;;10.25;1.85;;;;;;;;;;4391578;32;20433;-71
2022/09/26 00:25:32;;;;;;;12.80;2.03;;;;;;;;;;4391985;32;20069;-71
2022/09/26 00:27:57;;;;;;;10.25;1.80;;;;;;;;;;4391703;32;20026;-71
2022/09/26 00:30:23;;;;;;;6.43;2.08;;;;;;;;;;4391918;32;20057;-71
2022/09/26 00:32:48;;;;;;;8.98;2.17;;;;;;;;;;4391878;32;20089;-71
2022/09/26 00:35:13;;;;;;;5.22;1.83;;;;;;;;;;4391837;32;20448;-70
2022/09/26 00:37:38;;;;;;;6.10;2.10;;;;;;;;;;4405805;27;20053;-63
2022/09/26 00:40:04;;;;;;;5.75;2.03;;;;;;;;;;4345658;33;20039;-63
2022/09/26 00:42:29;;;;;;;9.13;2.00;;;;;;;;;;4346489;33;20135;-63
2022/09/26 00:44:55;;;;;;;5.68;2.12;;;;;;;;;;4348090;33;20028;-64
2022/09/26 00:47:20;;;;;;;4.78;1.70;;;;;;;;;;4347004;33;20082;-63
2022/09/26 00:49:47;;;;;;;6.78;2.30;;;;;;;;;;4358691;32;20035;-63
2022/09/26 00:52:41;;;;;;;6.93;2.17;;;;;;;;;;4362039;32;20102;-66
2022/09/26 00:55:08;;;;;;;6.37;1.83;;;;;;;;;;4333654;33;20040;-64
2022/09/26 00:57:40;;;;;;;6.70;2.12;;;;;;;;;;4349040;33;20413;-63
2022/09/26 01:00:09;;;;;;;4.32;1.80;;;;;;;;;;4349002;32;20384;-65
2022/09/26 01:02:35;;;;;;;7.30;2.00;;;;;;;;;;4362096;32;20039;-64
2022/09/26 01:05:01;;;;;;;6.07;1.90;;;;;;;;;;4361441;32;20397;-65
2022/09/26 01:07:27;;;;;;;4.87;2.05;;;;;;;;;;4362168;32;20081;-65
2022/09/26 01:09:53;;;;;;;5.07;1.95;;;;;;;;;;4362279;32;20411;-65
2022/09/26 01:12:19;;;;;;;6.60;2.37;;;;;;;;;;4361657;32;20039;-64
2022/09/26 01:14:45;;;;;;;5.30;2.03;;;;;;;;;;4360985;32;20031;-63
2022/09/26 01:17:11;;;;;;;6.85;2.33;;;;;;;;;;4361854;32;20032;-64
2022/09/26 01:19:55;;;;;;;4.18;1.73;;;;;;;;;;4361207;32;20062;-65
2022/09/26 01:22:42;;;;;;;6.00;1.80;;;;;;;;;;4361029;32;20031;-65
2022/09/26 01:25:07;;;;;;;5.75;1.60;;;;;;;;;;4362054;32;20036;-64
2022/09/26 01:27:38;;;;;;;3.60;2.00;;;;;;;;;;4362095;32;20027;-64
2022/09/26 01:30:03;;;;;;;8.00;2.05;;;;;;;;;;4361649;32;20027;-63
2022/09/26 01:32:47;;;;;;;4.57;2.22;;;;;;;;;;4346576;32;20130;-64
2022/09/26 01:35:15;;;;;;;7.87;1.95;;;;;;;;;;4361629;32;20035;-64
2022/09/26 01:37:49;;;;;;;4.32;2.12;;;;;;;;;;4359322;32;20406;-62
2022/09/26 01:40:20;;;;;;;7.50;2.40;;;;;;;;;;4346789;33;20078;-63
2022/09/26 01:42:53;;;;;;;13.70;2.92;;;;;;;;;;4359337;32;20053;-64
2022/09/26 01:45:21;;;;;;;8.18;2.47;;;;;;;;;;4347044;33;20054;-64
2022/09/26 01:47:47;;;;;;;7.07;2.22;;;;;;;;;;4347096;33;20062;-64
2022/09/26 01:50:21;;;;;;;9.38;2.37;;;;;;;;;;4360542;32;20070;-64
2022/09/26 01:52:54;;;;;;;5.97;2.50;;;;;;;;;;4360140;32;20027;-64
2022/09/26 01:55:19;;;;;;;9.98;2.40;;;;;;;;;;4360417;32;20515;-64
2022/09/26 01:57:45;;;;;;;;;;;;;;;;;;4361846;32;20028;-64
2022/09/26 02:00:13;;;;;;;6.30;3.00;;;;;;;;;;4360786;32;19970;-64
2022/09/26 02:02:42;;;;;;;10.05;3.22;;;;;;;;;;4360673;32;20055;-63
2022/09/26 02:05:12;;;;;;;10.27;2.75;;;;;;;;;;4361842;32;20418;-64
2022/09/26 02:07:49;;;;;;;7.47;2.45;;;;;;;;;;4360750;32;20066;-64
2022/09/26 02:10:20;;;;;;;7.37;2.60;;;;;;;;;;4351157;32;20036;-63
2022/09/26 02:12:49;;;;;;;11.82;2.55;;;;;;;;;;4346763;33;20154;-63
2022/09/26 02:15:17;;;;;;;10.27;2.67;;;;;;;;;;4345971;33;20057;-63
2022/09/26 02:17:48;;;;;;;7.40;2.33;;;;;;;;;;4331084;33;20047;-63
2022/09/26 02:20:33;;;;;;;5.22;2.47;;;;;;;;;;4358923;33;20028;-63
2022/09/26 02:23:02;;;;;;;6.35;2.35;;;;;;;;;;4334414;33;20040;-63
2022/09/26 02:25:27;;;;;;;5.82;2.37;;;;;;;;;;4346617;33;20137;-64
2022/09/26 02:27:53;;;;;;;5.12;2.20;;;;;;;;;;4346647;33;20035;-64
2022/09/26 02:30:18;;;;;;;5.55;2.30;;;;;;;;;;4346032;33;20027;-63
2022/09/26 02:32:43;;;;;;;7.82;2.50;;;;;;;;;;4345222;33;20036;-63
2022/09/26 02:37:53;;;;;;;6.10;2.15;;;;;;;;;;4359288;33;19961;-64
2022/09/26 02:40:23;;;;;;;4.68;2.53;;;;;;;;;;4360479;33;20345;-64
2022/09/26 02:42:52;;;;;;;4.95;2.70;;;;;;;;;;4361538;33;20061;-63
2022/09/26 02:45:41;;;;;;;10.48;2.60;;;;;;;;;;4361112;32;20106;-62
2022/09/26 02:48:09;;;;;;;8.80;2.90;;;;;;;;;;4362784;33;20027;-64
2022/09/26 02:50:37;;;;;;;3.80;2.50;;;;;;;;;;4364076;32;20070;-64
2022/09/26 02:53:09;;;;;;;8.30;2.67;;;;;;;;;;4364472;32;20039;-64
2022/09/26 02:55:37;;;;;;;5.57;2.67;;;;;;;;;;4362656;32;20339;-64
2022/09/26 02:58:07;;;;;;;6.43;2.53;;;;;;;;;;4361488;32;20057;-64
2022/09/26 03:00:51;;;;;;;9.10;2.83;;;;;;;;;;4361771;32;20417;-64
2022/09/26 03:03:31;;;;;;;5.57;2.33;;;;;;;;;;4364187;32;20040;-63
2022/09/26 03:05:57;;;;;;;6.72;2.62;;;;;;;;;;4363564;32;20107;-64
2022/09/26 03:08:26;;;;;;;8.10;3.05;;;;;;;;;;4364458;32;20064;-63
2022/09/26 03:10:53;;;;;;;6.68;3.30;;;;;;;;;;4363995;32;20093;-64
2022/09/26 03:13:19;;;;;;;8.95;3.50;;;;;;;;;;4363878;32;20039;-63
2022/09/26 03:15:46;;;;;;;11.07;3.17;;;;;;;;;;4363972;32;20051;-63
2022/09/26 03:18:13;;;;;;;6.37;2.65;;;;;;;;;;4363853;32;20035;-64
2022/09/26 03:20:39;;;;;;;5.00;2.50;;;;;;;;;;4363756;32;20084;-62
2022/09/26 03:23:04;;;;;;;7.82;3.17;;;;;;;;;;4363136;32;20054;-64
2022/09/26 03:25:30;;;;;;;4.65;2.58;;;;;;;;;;4349058;33;20370;-63
2022/09/26 03:27:56;;;;;;;10.07;4.03;;;;;;;;;;4363327;32;20097;-63
2022/09/26 03:30:21;;;;;;;5.10;3.05;;;;;;;;;;4363700;32;20043;-63
2022/09/26 03:32:47;;;;;;;6.10;2.97;;;;;;;;;;4364032;32;20080;-63
2022/09/26 03:35:12;;;;;;;5.75;3.20;;;;;;;;;;4363902;32;20332;-64
2022/09/26 03:37:37;;;;;;;;;;;;;;;;;;4363660;32;20031;-64
2022/09/26 03:40:07;;;;;;;6.15;2.45;;;;;;;;;;4362854;32;19930;-63
2022/09/26 03:42:32;;;;;;;8.95;2.72;;;;;;;;;;4362379;32;20201;-64
2022/09/26 03:45:00;;;;;;;6.20;2.55;;;;;;;;;;4362515;33;20035;-63
2022/09/26 03:47:25;;;;;;;6.87;2.90;;;;;;;;;;4361203;32;20460;-64
2022/09/26 03:49:51;;;;;;;5.95;2.60;;;;;;;;;;4361827;33;20035;-64
2022/09/26 03:52:16;;;;;;;7.05;2.58;;;;;;;;;;4361819;33;20071;-64
2022/09/26 03:54:41;;;;;;;;;;;;;;;;;;4363555;32;20027;-63
2022/09/26 03:57:06;;;;;;;4.82;2.30;;;;;;;;;;4361437;32;19938;-64
2022/09/26 03:59:31;;;;;;;8.02;2.75;;;;;;;;;;4349879;32;20050;-63
2022/09/26 04:01:56;;;;;;;;;;;;;;;;;;4363290;32;20035;-64
2022/09/26 04:04:22;;;;;;;13.62;3.12;;;;;;;;;;4363536;32;19935;-62
2022/09/26 04:06:49;;;;;;;5.60;2.97;;;;;;;;;;4363241;32;20461;-63
2022/09/26 04:09:16;;;;;;;11.93;3.10;;;;;;;;;;4363542;32;20098;-63
2022/09/26 04:11:42;;;;;;;13.02;4.30;;;;;;;;;;4349625;32;20053;-66
2022/09/26 04:14:07;;;;;;;;;;;;;;;;;;4349734;32;20031;-63
2022/09/26 04:16:32;;;;;;;10.20;3.33;;;;;;;;;;4347952;33;19962;-64
2022/09/26 04:18:57;;;;;;;7.82;3.25;;;;;;;;;;4361724;32;20027;-64
2022/09/26 04:21:22;;;;;;;5.35;3.17;;;;;;;;;;4363380;32;20039;-63
2022/09/26 04:23:49;;;;;;;6.97;3.22;;;;;;;;;;4361770;32;20038;-64
2022/09/26 04:26:15;;;;;;;8.65;3.08;;;;;;;;;;4349401;32;20065;-63
2022/09/26 04:28:40;;;;;;;17.17;4.75;;;;;;;;;;4361952;32;20116;-66
2022/09/26 04:31:06;;;;;;;7.57;3.78;;;;;;;;;;4361350;32;20031;-65
2022/09/26 04:33:32;;;;;;;;;;;;;;;;;;4362728;32;20061;-63
2022/09/26 04:35:58;;;;;;;11.23;4.53;;;;;;;;;;4362254;32;20211;-65
2022/09/26 04:38:25;;;;;;;6.30;3.60;;;;;;;;;;4346530;33;20168;-65
2022/09/26 04:40:50;;;;;;;7.60;3.50;;;;;;;;;;4347181;32;20070;-65
2022/09/26 04:43:15;;;;;;;;;;;;;;;;;;4346721;33;20039;-65
2022/09/26 04:45:42;;;;;;;6.80;3.47;;;;;;;;;;4347564;33;19950;-65
2022/09/26 04:48:07;;;;;;;10.02;4.05;;;;;;;;;;4348080;33;20596;-65
2022/09/26 04:50:32;;;;;;;5.00;3.53;;;;;;;;;;4346461;33;20031;-64
2022/09/26 04:52:57;;;;;;;;;;;;;;;;;;4346566;32;20031;-64
2022/09/26 04:55:23;;;;;;;15.18;3.25;;;;;;;;;;4346556;33;19973;-65
2022/09/26 04:57:49;;;;;;;7.25;3.50;;;;;;;;;;4345818;32;20024;-64
2022/09/26 05:00:14;;;;;;;;;;;;;;;;;;4345380;32;20394;-64
2022/09/26 05:02:39;;;;;;;9.20;3.67;;;;;;;;;;4345842;33;20006;-65
2022/09/26 05:05:05;;;;;;;7.87;2.97;;;;;;;;;;4347382;33;20035;-65
2022/09/26 05:07:31;;;;;;;9.48;3.28;;;;;;;;;;4346023;32;20062;-64
2022/09/26 05:09:56;;;;;;;11.40;3.83;;;;;;;;;;4346632;32;20054;-65
2022/09/26 05:12:21;;;;;;;;;;;;;;;;;;4346963;32;20449;-65
2022/09/26 05:14:46;;;;;;;8.00;4.30;;;;;;;;;;4345053;33;19943;-65
2022/09/26 05:17:11;;;;;;;8.38;3.75;;;;;;;;;;4346449;33;20023;-63
2022/09/26 05:19:36;;;;;;;6.65;4.28;;;;;;;;;;4345856;32;20035;-65
2022/09/26 05:22:02;;;;;;;7.60;3.35;;;;;;;;;;4346690;33;20079;-65
2022/09/26 05:27:11;;;;;;;9.57;3.37;;;;;;;;;;4343293;33;20050;-65
2022/09/26 05:29:36;;;;;;;11.10;3.10;;;;;;;;;;4331112;33;20155;-64
2022/09/26 05:32:01;;;;;;;9.80;3.15;;;;;;;;;;4339792;33;20418;-65
2022/09/26 05:34:26;;;;;;;;;;;;;;;;;;4346904;32;20034;-64
2022/09/26 05:36:52;;;;;;;7.10;3.33;;;;;;;;;;4345438;33;19949;-64
2022/09/26 05:42:04;;;;;;;11.25;4.20;;;;;;;;;;4361390;32;20110;-63
2022/09/26 05:44:29;;;;;;;7.12;3.33;;;;;;;;;;4361018;32;20066;-64
2022/09/26 05:46:56;;;;;;;;;;;;;;;;;;4360488;32;20110;-64
2022/09/26 05:49:21;;;;;;;7.67;3.80;;;;;;;;;;4346677;33;19931;-64
2022/09/26 05:51:46;;;;;;;;;;;;;;;;;;4361905;32;20031;-64
2022/09/26 05:54:11;;;;;;;6.97;3.87;;;;;;;;;;4360411;32;19950;-64
2022/09/26 05:56:36;;;;;;;;;;;;;;;;;;4359685;32;20150;-65
2022/09/26 05:59:02;;;;;;;17.40;4.12;;;;;;;;;;4353737;33;19959;-63
2022/09/26 06:01:27;;;;;;;11.10;3.87;;;;;;;;;;4345618;33;20028;-65
2022/09/26 06:03:52;;;;;;;;;;;;;;;;;;4354772;32;20027;-63
2022/09/26 06:06:18;;;;;;;10.00;3.87;;;;;;;;;;4360792;32;19981;-63
2022/09/26 06:08:44;;;;;;;7.60;3.03;;;;;;;;;;4359227;33;20090;-63
2022/09/26 06:11:12;;;;;;;13.07;3.70;;;;;;;;;;4338145;33;20039;-65
2022/09/26 06:13:39;;;;;;;5.78;3.25;;;;;;;;;;4359401;32;20035;-65
2022/09/26 06:16:05;;;;;;;8.38;3.83;;;;;;;;;;4360690;32;20042;-64
2022/09/26 06:18:31;;;;;;;8.95;4.03;;;;;;;;;;4358508;33;20062;-64
2022/09/26 06:20:59;;;;;;;4.22;2.95;;;;;;;;;;4359832;32;20027;-64
2022/09/26 06:23:24;;;;;;;10.07;3.37;;;;;;;;;;4344766;33;20043;-63
2022/09/26 06:25:49;;;;;;;11.85;3.92;;;;;;;;;;4360092;32;20059;-64
2022/09/26 06:28:14;;;;;;;5.97;3.33;;;;;;;;;;4359053;33;20455;-64
2022/09/26 06:30:39;;;;;;;8.20;3.45;;;;;;;;;;4359640;33;20092;-63
2022/09/26 06:33:05;;;;;;;9.32;4.35;;;;;;;;;;4361392;33;20102;-63
2022/09/26 06:35:30;;;;;;;;;;;;;;;;;;4360433;33;20062;-63
2022/09/26 06:37:57;;;;;;;9.77;3.75;;;;;;;;;;4360286;33;19989;-62
2022/09/26 06:40:23;;;;;;;8.18;3.33;;;;;;;;;;4359610;33;20120;-62
2022/09/26 06:42:48;;;;;;;7.32;3.95;;;;;;;;;;4361053;33;20444;-63
2022/09/26 06:45:13;;;;;;;;;;;;;;;;;;4359979;33;20028;-62
2022/09/26 06:47:38;;;;;;;7.57;4.15;;;;;;;;;;4345803;33;19985;-63
2022/09/26 06:50:03;;;;;;;;;;;;;;;;;;4361192;33;20370;-64
2022/09/26 06:52:32;;;;;;;7.03;3.50;;;;;;;;;;4360035;33;20305;-63
2022/09/26 06:54:58;;;;;;;8.23;3.87;;;;;;;;;;4360285;33;20443;-63
2022/09/26 06:57:23;;;;;;;10.57;4.00;;;;;;;;;;4360482;33;20027;-62
2022/09/26 06:59:48;;;;;;;11.20;3.97;;;;;;;;;;4359522;33;20027;-63
2022/09/26 07:02:15;;;;;;;16.37;3.97;;;;;;;;;;4357903;32;20418;-61
2022/09/26 07:04:41;;;;;;;5.82;3.17;;;;;;;;;;4359207;33;20062;-63
2022/09/26 07:07:06;;;;;;;8.18;3.20;;;;;;;;;;4365951;32;20398;-62
2022/09/26 07:09:32;;;;;;;7.65;3.12;;;;;;;;;;4375708;32;20043;-63
2022/09/26 07:11:58;;;;;;;7.60;3.97;;;;;;;;;;4349616;32;20103;-62
2022/09/26 07:14:23;;;;;;;6.65;3.12;;;;;;;;;;4359102;33;20053;-63
2022/09/26 07:16:49;;;;;;;;;;;;;;;;;;4360608;33;20054;-62
2022/09/26 07:19:15;;;;;;;12.73;4.05;;;;;;;;;;4361733;32;19938;-62
2022/09/26 07:21:41;;;;;;;12.98;3.85;;;;;;;;;;4358883;33;20093;-62
2022/09/26 07:24:07;;;;;;;10.60;3.55;;;;;;;;;;4332145;33;20091;-62
2022/09/26 07:26:32;;;;;;;6.07;3.03;;;;;;;;;;4358318;33;20056;-62
2022/09/26 07:28:57;;;;;;;8.85;3.28;;;;;;;;;;4359649;33;20027;-65
2022/09/26 07:31:23;;;;;;;5.62;3.03;;;;;;;;;;4346728;33;20035;-65
2022/09/26 07:33:48;;;;;;;10.45;2.92;;;;;;;;;;4361746;32;20035;-68
2022/09/26 07:36:13;;;;;;;6.00;2.58;;;;;;;;;;4362427;32;20451;-64
2022/09/26 07:38:38;;;;;;;9.43;3.03;;;;;;;;;;4362644;32;20121;-65
2022/09/26 07:41:03;;;;;;;6.30;2.87;;;;;;;;;;4362815;32;20101;-65
2022/09/26 07:43:28;;;;;;;7.18;3.17;;;;;;;;;;4361464;32;20058;-64
2022/09/26 07:51:23;;;;;;;9.45;3.30;;;;;;;;;;4348588;33;20127;-63
2022/09/26 07:53:48;;;;;;;7.87;3.00;;;;;;;;;;4372079;32;20100;-65
2022/09/26 07:56:15;;;;;;;7.78;3.75;;;;;;;;;;4362826;32;20027;-64
2022/09/26 07:58:41;;;;;;;6.15;2.95;;;;;;;;;;4364312;32;20120;-64
2022/09/26 08:01:10;;;;;;;6.55;2.78;;;;;;;;;;4377576;32;20027;-65
2022/09/26 08:03:35;;;;;;;9.70;3.05;;;;;;;;;;4376547;32;20101;-64
2022/09/26 08:06:01;;;;;;;6.00;2.80;;;;;;;;;;4365863;32;20031;-66
2022/09/26 08:08:26;;;;;;;11.70;3.17;;;;;;;;;;4361576;33;20137;-65
2022/09/26 08:10:52;;;;;;;8.27;3.03;;;;;;;;;;4350872;32;20081;-65
2022/09/26 08:13:17;;;;;;;10.98;3.37;;;;;;;;;;4354095;32;20039;-65
2022/09/26 08:15:42;;;;;;;13.07;3.53;;;;;;;;;;4361230;33;20460;-65
2022/09/26 08:18:07;;;;;;;5.30;3.00;;;;;;;;;;4338777;33;20039;-66
2022/09/26 08:20:32;;;;;;;;;;;;;;;;;;4356459;33;20031;-66
2022/09/26 08:22:58;;;;;;;9.75;4.15;;;;;;;;;;4361547;32;19977;-65
2022/09/26 08:25:23;;;;;;;;;;;;;;;;;;4361522;32;20054;-65
2022/09/26 08:27:49;;;;;;;12.13;4.32;;;;;;;;;;4362029;32;19943;-66
2022/09/26 08:30:14;;;;;;;8.93;4.05;;;;;;;;;;4361054;32;20035;-65
2022/09/26 08:32:39;;;;;;;;;;;;;;;;;;4362441;32;20092;-66
2022/09/26 08:35:05;;;;;;;17.23;4.85;;;;;;;;;;4360299;32;19938;-66
2022/09/26 08:37:30;;;;;;;;;;;;;;;;;;4360597;32;20174;-65
2022/09/26 08:39:55;;;;;;;12.07;4.70;;;;;;;;;;4362295;32;19973;-65
2022/09/26 08:42:33;;;;;;;9.20;4.12;;;;;;;;;;4360621;32;20077;-65
2022/09/26 08:46:17;;;;;;;10.93;5.47;;;;;;;;;;4359452;32;20085;-66
2022/09/26 08:47:59;;;;;;;7.07;4.00;;;;;;;;;;4351762;33;20031;-66
2022/09/26 08:50:31;;;;;;;14.25;5.37;;;;;;;;;;4348335;32;20406;-66
2022/09/26 08:53:02;;;;;;;8.65;4.53;;;;;;;;;;4361341;32;20081;-65
2022/09/26 08:55:30;;;;;;;9.95;4.18;;;;;;;;;;4357876;32;20036;-65
2022/09/26 08:58:00;;;;;;;9.85;4.53;;;;;;;;;;4348944;32;20166;-64
2022/09/26 09:00:28;;;;;;;9.48;4.47;;;;;;;;;;4350237;32;20057;-64
2022/09/26 09:02:58;;;;;;;11.63;5.00;;;;;;;;;;4360097;32;20034;-65
2022/09/26 09:05:26;;;;;;;11.68;5.35;;;;;;;;;;4360061;32;20474;-65
2022/09/26 09:07:53;;;;;;;8.27;5.00;;;;;;;;;;4345702;33;20071;-65
2022/09/26 09:10:20;;;;;;;10.93;5.57;;;;;;;;;;4362197;32;20440;-65
2022/09/26 09:12:53;;;;;;;12.15;5.57;;;;;;;;;;4360978;32;20403;-65
2022/09/26 09:15:27;;;;;;;16.12;5.45;;;;;;;;;;4360272;33;20385;-65
2022/09/26 09:17:52;;;;;;;14.45;5.78;;;;;;;;;;4361745;32;20069;-65
2022/09/26 09:20:21;;;;;;;11.73;4.93;;;;;;;;;;4361679;32;20353;-65
2022/09/26 09:23:01;;;;;;;16.85;6.28;;;;;;;;;;4361831;32;20476;-65
2022/09/26 09:25:31;;;;;;;15.50;5.43;;;;;;;;;;4360774;32;20081;-65
2022/09/26 09:28:28;;;;;;;13.05;5.45;;;;;;;;;;4361684;32;20035;-65
2022/09/26 09:30:55;;;;;;;13.27;5.72;;;;;;;;;;4320507;33;20405;-65
2022/09/26 09:33:23;;;;;;;9.73;5.00;;;;;;;;;;4333165;33;20074;-64
2022/09/26 09:35:53;;;;;;;16.33;5.78;;;;;;;;;;4346809;33;20047;-65
2022/09/26 09:38:21;;;;;;;12.55;5.20;;;;;;;;;;4345792;33;20486;-66
2022/09/26 09:40:52;;;;;;;12.75;5.90;;;;;;;;;;4348803;32;20039;-65
2022/09/26 09:43:25;;;;;;;12.68;5.35;;;;;;;;;;4333332;33;20090;-64
2022/09/26 09:45:52;;;;;;;14.70;7.05;;;;;;;;;;4334714;33;20420;-64
2022/09/26 09:48:18;;;;;;;11.38;5.57;;;;;;;;;;4345714;33;20077;-65
2022/09/26 09:51:04;;;;;;;16.27;6.28;;;;;;;;;;4361271;32;20051;-66
2022/09/26 09:53:35;;;;;;;16.45;6.57;;;;;;;;;;4347530;32;20073;-67
2022/09/26 09:56:13;;;;;;;12.20;7.32;;;;;;;;;;4347228;32;20374;-65
2022/09/26 09:58:50;;;;;;;12.43;6.35;;;;;;;;;;4347095;33;20374;-66
2022/09/26 10:01:28;;;;;;;11.80;6.43;;;;;;;;;;4352633;32;20158;-69
2022/09/26 10:03:54;;;;;;;11.57;7.07;;;;;;;;;;4360810;32;20077;-67
2022/09/26 10:06:19;;;;;;;13.90;7.53;;;;;;;;;;4360696;32;20349;-68
2022/09/26 10:08:44;;;;;;;19.60;7.45;;;;;;;;;;4361207;32;20104;-66
2022/09/26 10:11:11;;;;;;;;;;;;;;;;;;4360545;33;20483;-67
2022/09/26 10:13:41;;;;;;;15.63;8.52;;;;;;;;;;4359429;33;20005;-68
2022/09/26 10:16:06;;;;;;;10.88;7.28;;;;;;;;;;4359662;32;20059;-68
2022/09/26 10:18:32;;;;;;;18.62;7.85;;;;;;;;;;4360118;32;20027;-68
2022/09/26 10:21:07;;;;;;;12.95;8.13;;;;;;;;;;4361252;32;20035;-68
2022/09/26 10:23:32;;;;;;;13.32;7.35;;;;;;;;;;4357550;32;20034;-68
2022/09/26 10:26:02;;;;;;;13.55;8.07;;;;;;;;;;4376304;32;20089;-69
2022/09/26 10:28:34;;;;;;;16.02;10.13;;;;;;;;;;4376050;32;20042;-68
2022/09/26 10:31:07;;;;;;;16.42;9.57;;;;;;;;;;4350319;33;20429;-69
2022/09/26 10:33:34;;;;;;;13.70;7.62;;;;;;;;;;4360955;33;20042;-67
2022/09/26 10:36:07;;;;;;;17.23;8.85;;;;;;;;;;4360315;33;20046;-69
2022/09/26 10:40:43;;;;;;;13.82;9.20;;;;;;;;;;4358854;32;20438;-69
2022/09/26 10:41:22;;;;;;;12.70;9.90;;;;;;;;;;4359021;33;20031;-69
2022/09/26 10:43:51;;;;;;;16.73;10.90;;;;;;;;;;4360164;33;20081;-69
2022/09/26 10:46:17;;;;;;;16.70;10.07;;;;;;;;;;4350387;33;20035;-69
2022/09/26 10:48:46;;;;;;;;;;;;;;;;;;4342614;33;20035;-69
2022/09/26 10:51:21;;;;;;;13.88;10.18;;;;;;;;;;4360568;33;19946;-69
2022/09/26 10:53:50;;;;;;;10.85;8.75;;;;;;;;;;4358232;33;20052;-69
2022/09/26 10:56:19;;;;;;;12.63;9.27;;;;;;;;;;4359108;33;20110;-69
2022/09/26 10:58:45;;;;;;;10.52;9.23;;;;;;;;;;4354571;33;20043;-68
2022/09/26 11:01:19;;;;;;;11.90;10.43;;;;;;;;;;4343525;33;20070;-68
2022/09/26 11:03:45;;;;;;;11.15;9.90;;;;;;;;;;4359126;33;20395;-69
2022/09/26 11:06:25;;;;;;;12.60;10.30;;;;;;;;;;4361070;32;20121;-68
2022/09/26 11:08:52;;;;;;;18.50;10.38;;;;;;;;;;4360590;32;20137;-69
2022/09/26 11:11:20;;;;;;;14.43;10.25;;;;;;;;;;4354157;33;20435;-68
2022/09/26 11:13:54;;;;;;;12.68;11.35;;;;;;;;;;4356059;32;20087;-71
2022/09/26 11:16:19;;;;;;;10.52;9.52;;;;;;;;;;4352964;32;20039;-69
2022/09/26 11:18:44;;;;;;;9.98;8.88;;;;;;;;;;4354447;32;20058;-69
2022/09/26 11:21:33;;;;;;;9.88;8.88;;;;;;;;;;4354007;32;20465;-70
2022/09/26 11:24:18;;;;;;;13.55;8.80;;;;;;;;;;4354608;32;20024;-70
2022/09/26 11:26:48;;;;;;;10.60;9.60;;;;;;;;;;4353906;32;20069;-70
2022/09/26 11:29:33;;;;;;;11.48;10.13;;;;;;;;;;4353232;32;20027;-69
2022/09/26 11:31:58;;;;;;;11.02;9.60;;;;;;;;;;4339691;33;20056;-71
2022/09/26 11:34:27;;;;;;;13.95;11.32;;;;;;;;;;4354221;32;20030;-69
2022/09/26 11:37:15;;;;;;;11.10;9.90;;;;;;;;;;4354668;32;20039;-69
2022/09/26 11:39:49;;;;;;;12.37;10.10;;;;;;;;;;4339465;33;20104;-68
2022/09/26 11:42:33;;;;;;;12.63;11.20;;;;;;;;;;4338913;33;20470;-70
2022/09/26 11:45:03;;;;;;;10.20;9.20;;;;;;;;;;4352042;32;20058;-69
2022/09/26 11:47:35;;;;;;;9.60;8.60;;;;;;;;;;4349869;32;20705;-70
2022/09/26 11:50:01;;;;;;;10.00;8.95;;;;;;;;;;4352463;32;20078;-70
2022/09/26 11:52:32;;;;;;;9.00;8.20;;;;;;;;;;4338039;32;20106;-69
2022/09/26 11:55:10;;;;;;;11.82;8.90;;;;;;;;;;4353066;32;20079;-69
2022/09/26 11:57:41;;;;;;;10.25;9.15;;;;;;;;;;4352868;32;20380;-68
2022/09/26 12:00:06;;;;;;;12.00;8.68;;;;;;;;;;4339376;33;20368;-69
2022/09/26 12:02:40;;;;;;;10.27;8.23;;;;;;;;;;4352351;32;20101;-69
2022/09/26 12:05:24;;;;;;;12.65;8.25;;;;;;;;;;4352907;32;20032;-69
2022/09/26 12:07:49;;;;;;;12.93;11.27;;;;;;;;;;4339239;33;20090;-70
2022/09/26 12:10:24;;;;;;;12.30;9.50;;;;;;;;;;4352342;32;20448;-71
2022/09/26 12:13:00;;;;;;;10.65;8.75;;;;;;;;;;4351449;33;20078;-69
2022/09/26 12:15:43;;;;;;;10.48;8.55;;;;;;;;;;4352411;32;20059;-69
2022/09/26 12:18:17;;;;;;;12.65;8.27;;;;;;;;;;4352031;32;20032;-70
2022/09/26 12:21:01;;;;;;;7.40;4.93;;;;;;;;;;4353642;32;20074;-70
2022/09/26 12:23:26;;;;;;;5.85;4.20;;;;;;;;;;4351919;33;20133;-68
2022/09/26 12:26:07;;;;;;;5.45;4.37;;;;;;;;;;4357405;32;20094;-69
2022/09/26 12:28:41;;;;;;;7.30;4.50;;;;;;;;;;4359600;32;20129;-69
2022/09/26 12:31:16;;;;;;;4.80;3.90;;;;;;;;;;4360042;32;20039;-69
2022/09/26 12:34:01;;;;;;;8.30;5.00;;;;;;;;;;4361549;32;20346;-68
2022/09/26 12:36:46;;;;;;;8.07;5.68;;;;;;;;;;4361882;32;20061;-71
2022/09/26 12:39:41;;;;;;;8.05;6.00;;;;;;;;;;4360167;32;20420;-70
2022/09/26 12:42:23;;;;;;;7.40;6.22;;;;;;;;;;4340116;32;20044;-70
2022/09/26 12:44:57;;;;;;;11.57;7.45;;;;;;;;;;4362633;32;20144;-70
2022/09/26 12:47:43;;;;;;;9.23;7.37;;;;;;;;;;4360117;32;20031;-70
2022/09/26 12:50:15;;;;;;;12.48;7.72;;;;;;;;;;4359991;33;20464;-69
2022/09/26 12:52:44;;;;;;;7.68;6.75;;;;;;;;;;4360485;32;20101;-70
2022/09/26 12:55:15;;;;;;;8.95;7.85;;;;;;;;;;4346116;33;20406;-69
2022/09/26 12:57:40;;;;;;;11.75;7.28;;;;;;;;;;4347776;33;20584;-68
2022/09/26 13:00:09;;;;;;;7.18;6.20;;;;;;;;;;4346120;33;20024;-68
2022/09/26 13:02:37;;;;;;;11.75;7.62;;;;;;;;;;4359537;32;20061;-69
2022/09/26 13:05:26;;;;;;;8.55;5.53;;;;;;;;;;4361866;32;20031;-69
2022/09/26 13:08:17;;;;;;;11.77;5.72;;;;;;;;;;4313043;33;20035;-68
2022/09/26 13:11:01;;;;;;;11.15;6.82;;;;;;;;;;4361996;32;20035;-69
2022/09/26 13:13:35;;;;;;;12.40;5.30;;;;;;;;;;4360809;32;20036;-68
2022/09/26 13:16:03;;;;;;;9.63;5.10;;;;;;;;;;4361427;32;20523;-68
2022/09/26 13:18:36;;;;;;;7.20;4.80;;;;;;;;;;4357804;32;20094;-68
2022/09/26 13:21:06;;;;;;;9.20;5.30;;;;;;;;;;4361444;32;20444;-68
2022/09/26 13:23:37;;;;;;;7.18;4.25;;;;;;;;;;4360031;32;20124;-68
2022/09/26 13:26:24;;;;;;;9.13;4.15;;;;;;;;;;4360220;32;20366;-68
2022/09/26 13:28:53;;;;;;;6.22;3.20;;;;;;;;;;4360279;32;20117;-66
2022/09/26 13:31:22;;;;;;;8.88;3.85;;;;;;;;;;4359724;33;20057;-67
2022/09/26 13:33:50;;;;;;;12.45;4.97;;;;;;;;;;4341017;33;20051;-68
2022/09/26 13:36:17;;;;;;;14.18;5.12;;;;;;;;;;4360336;32;20472;-67
2022/09/26 13:39:02;;;;;;;10.70;4.22;;;;;;;;;;4359278;32;20074;-67
2022/09/26 13:41:39;;;;;;;13.15;4.80;;;;;;;;;;4345733;33;20046;-67
2022/09/26 13:44:10;;;;;;;11.68;3.22;;;;;;;;;;4353373;32;20081;-67
2022/09/26 13:46:40;;;;;;;10.43;3.58;;;;;;;;;;4349333;33;20023;-66
2022/09/26 13:49:23;;;;;;;9.98;3.12;;;;;;;;;;4360176;32;20425;-67
2022/09/26 13:52:01;;;;;;;6.45;2.85;;;;;;;;;;4360095;32;20061;-66
2022/09/26 13:54:30;;;;;;;7.87;3.35;;;;;;;;;;4375019;32;20022;-65
2022/09/26 13:56:55;;;;;;;7.65;3.50;;;;;;;;;;4366716;32;20039;-66
2022/09/26 13:59:25;;;;;;;9.00;3.50;;;;;;;;;;4359224;32;20069;-65
2022/09/26 14:02:09;;;;;;;6.57;4.05;;;;;;;;;;4358689;32;20238;-66
2022/09/26 14:04:35;;;;;;;9.73;4.20;;;;;;;;;;4351398;33;20044;-65
2022/09/26 14:10:09;;;;;;;9.02;4.97;;;;;;;;;;4356715;32;20077;-69
2022/09/26 14:12:53;;;;;;;20.90;8.60;;;;;;;;;;4355083;32;20137;-70
2022/09/26 14:15:23;;;;;;;25.15;7.07;;;;;;;;;;4351653;32;20427;-71
2022/09/26 14:17:48;;;;;;;15.02;4.07;;;;;;;;;;4353586;32;20118;-70
2022/09/26 14:20:15;;;;;;;13.43;4.53;;;;;;;;;;4354551;33;20463;-69
2022/09/26 14:22:48;;;;;;;14.43;3.83;;;;;;;;;;4354186;32;20475;-68
2022/09/26 14:25:32;;;;;;;11.95;4.65;;;;;;;;;;4353976;32;20043;-70
2022/09/26 14:28:07;;;;;;;18.20;5.43;;;;;;;;;;4352491;32;20090;-69
2022/09/26 14:30:35;;;;;;;11.18;4.43;;;;;;;;;;4340621;33;20408;-67
2022/09/26 14:33:05;;;;;;;20.35;4.50;;;;;;;;;;4351541;33;20035;-69
2022/09/26 14:35:32;;;;;;;18.10;4.78;;;;;;;;;;4351109;33;20136;-69
2022/09/26 14:38:17;;;;;;;16.87;5.22;;;;;;;;;;4348764;33;20109;-69
2022/09/26 14:40:56;;;;;;;24.55;5.05;;;;;;;;;;4349514;33;20503;-68
2022/09/26 14:43:22;;;;;;;25.65;6.30;;;;;;;;;;4344090;33;20073;-68
2022/09/26 14:45:50;;;;;;;23.85;7.03;;;;;;;;;;4355045;32;20157;-68
2022/09/26 14:48:29;;;;;;;26.58;6.85;;;;;;;;;;4355893;32;20039;-69
2022/09/26 14:51:18;;;;;;;27.83;7.60;;;;;;;;;;4355162;32;20372;-69
2022/09/26 14:53:46;;;;;;;22.50;4.80;;;;;;;;;;4354805;32;20511;-69
2022/09/26 14:56:11;;;;;;;22.45;6.93;;;;;;;;;;4339707;33;20202;-69
2022/09/26 14:58:36;;;;;;;19.85;6.03;;;;;;;;;;4357512;32;20090;-69
2022/09/26 15:01:03;;;;;;;28.30;9.57;;;;;;;;;;4354137;33;20104;-69
2022/09/26 15:03:29;;;;;;;25.05;6.37;;;;;;;;;;4350377;32;20202;-69
2022/09/26 15:05:54;;;;;;;22.83;7.15;;;;;;;;;;4355234;32;20040;-68
2022/09/26 15:08:23;;;;;;;27.52;7.93;;;;;;;;;;4357139;32;20035;-67
2022/09/26 15:10:48;;;;;;;21.62;7.15;;;;;;;;;;4354958;32;20040;-68
2022/09/26 15:13:19;;;;;;;22.48;6.30;;;;;;;;;;4352848;32;20038;-68